createdAt,value
2023-05-20T00:01:56.819Z,100966.88
2023-05-20T00:04:24.796Z,100957.44
2023-05-20T00:06:52.886Z,100961.34
2023-05-20T00:09:20.872Z,100967.56
2023-05-20T00:11:48.877Z,100961.69
2023-05-20T00:14:16.872Z,100963.69
2023-05-20T00:16:46.234Z,100961.44
2023-05-20T00:19:14.308Z,100920.00
2023-05-20T00:21:42.302Z,100942.69
2023-05-20T00:24:10.232Z,100937.91
2023-05-20T00:26:38.199Z,100940.69
2023-05-20T00:29:06.171Z,100933.25
2023-05-20T00:31:34.159Z,100933.34
2023-05-20T00:34:03.746Z,100933.56
2023-05-20T00:36:31.766Z,100942.81
2023-05-20T00:38:59.973Z,100928.94
2023-05-20T00:41:28.348Z,100921.47
2023-05-20T00:43:56.876Z,100929.78
2023-05-20T00:46:25.567Z,100930.00
2023-05-20T00:48:54.354Z,100927.88
2023-05-20T00:51:23.924Z,100925.34
2023-05-20T00:53:52.034Z,100925.34
2023-05-20T00:56:20.195Z,100926.59
2023-05-20T00:58:48.768Z,100914.78
2023-05-20T01:01:16.804Z,100911.88
2023-05-20T01:03:44.880Z,100916.94
2023-05-20T01:06:12.850Z,100914.13
2023-05-20T01:08:42.414Z,100907.22
2023-05-20T01:11:14.840Z,100899.38
2023-05-20T01:13:47.916Z,100909.28
2023-05-20T01:16:18.543Z,100905.63
2023-05-20T01:18:48.711Z,100899.66
2023-05-20T01:21:16.993Z,100905.38
2023-05-20T01:23:46.280Z,100906.84
2023-05-20T01:26:14.862Z,100906.53
2023-05-20T01:28:46.013Z,100911.41
2023-05-20T01:31:19.233Z,100916.56
2023-05-20T01:33:51.993Z,100914.69
2023-05-20T01:36:22.585Z,100921.13
2023-05-20T01:38:54.028Z,100918.31
2023-05-20T01:41:23.152Z,100927.41
2023-05-20T01:43:51.358Z,100902.84
2023-05-20T01:46:19.422Z,100914.19
2023-05-20T01:48:47.397Z,100912.19
2023-05-20T01:51:15.350Z,100913.19
2023-05-20T01:53:43.328Z,100907.56
2023-05-20T01:56:12.647Z,100915.69
2023-05-20T01:58:40.607Z,100906.50
2023-05-20T02:01:08.604Z,100920.09
2023-05-20T02:03:36.552Z,100916.06
2023-05-20T02:06:04.678Z,100916.31
2023-05-20T02:08:32.719Z,100925.16
2023-05-20T02:11:00.702Z,100916.34
2023-05-20T02:13:30.007Z,100918.66
2023-05-20T02:15:57.990Z,100922.72
2023-05-20T02:18:26.695Z,100920.22
2023-05-20T02:20:54.745Z,100923.78
2023-05-20T02:23:22.709Z,100918.19
2023-05-20T02:25:50.899Z,100925.72
2023-05-20T02:28:18.843Z,100929.53
2023-05-20T02:30:48.368Z,100928.69
2023-05-20T02:33:16.360Z,100934.78
2023-05-20T02:35:44.355Z,100930.38
2023-05-20T02:38:12.733Z,100935.59
2023-05-20T02:40:40.874Z,100937.19
2023-05-20T02:43:08.814Z,100938.22
2023-05-20T02:45:36.848Z,100933.25
2023-05-20T02:48:06.898Z,100932.50
2023-05-20T02:50:34.945Z,100939.53
2023-05-20T02:53:02.907Z,100946.25
2023-05-20T02:55:30.845Z,100946.31
2023-05-20T02:57:58.840Z,100948.47
2023-05-20T03:00:28.791Z,100951.09
2023-05-20T03:02:56.806Z,100953.50
2023-05-20T03:05:27.550Z,100962.28
2023-05-20T03:07:55.598Z,100959.50
2023-05-20T03:10:23.730Z,100955.09
2023-05-20T03:12:51.689Z,100954.06
2023-05-20T03:15:19.719Z,100951.66
2023-05-20T03:17:47.681Z,100956.03
2023-05-20T03:20:16.786Z,100955.94
2023-05-20T03:22:46.132Z,100961.28
2023-05-20T03:25:14.141Z,100953.31
2023-05-20T03:27:43.048Z,100964.63
2023-05-20T03:30:11.645Z,100959.50
2023-05-20T03:32:39.644Z,100966.72
2023-05-20T03:35:08.816Z,100970.06
2023-05-20T03:37:36.981Z,100975.28
2023-05-20T03:40:07.939Z,100953.34
2023-05-20T03:42:35.930Z,100973.41
2023-05-20T03:45:03.923Z,100979.38
2023-05-20T03:47:32.041Z,100976.50
2023-05-20T03:50:00.152Z,100979.66
2023-05-20T03:52:28.184Z,100979.44
2023-05-20T03:54:57.210Z,100980.03
2023-05-20T03:57:26.537Z,100961.28
2023-05-20T03:59:54.694Z,100972.97
2023-05-20T04:02:23.013Z,100971.56
2023-05-20T04:04:53.082Z,100972.19
2023-05-20T04:07:21.121Z,100974.69
2023-05-20T04:09:49.038Z,100983.66
2023-05-20T04:12:19.473Z,100979.41
2023-05-20T04:14:50.186Z,100975.53
2023-05-20T04:17:18.157Z,100981.22
2023-05-20T04:19:46.274Z,100977.22
2023-05-20T04:22:14.198Z,100982.38
2023-05-20T04:24:42.195Z,100976.19
2023-05-20T04:27:11.240Z,100986.25
2023-05-20T04:29:41.609Z,100982.31
2023-05-20T04:32:11.624Z,100989.59
2023-05-20T04:34:39.633Z,100981.16
2023-05-20T04:37:07.894Z,100982.56
2023-05-20T04:39:36.528Z,100984.63
2023-05-20T04:42:04.934Z,100990.22
2023-05-20T04:44:32.984Z,100987.00
2023-05-20T04:47:00.938Z,100992.75
2023-05-20T04:49:30.346Z,100993.94
2023-05-20T04:51:58.702Z,100997.28
2023-05-20T04:54:26.692Z,101001.28
2023-05-20T04:56:54.638Z,100994.25
2023-05-20T04:59:22.568Z,100992.34
2023-05-20T05:01:50.666Z,100986.94
2023-05-20T05:04:18.729Z,100994.78
2023-05-20T05:06:49.255Z,100996.75
2023-05-20T05:09:17.217Z,101000.88
2023-05-20T05:11:45.181Z,100995.16
2023-05-20T05:14:13.132Z,101003.44
2023-05-20T05:16:41.092Z,101016.88
2023-05-20T05:19:09.754Z,101010.41
2023-05-20T05:21:37.710Z,101009.78
2023-05-20T05:24:07.450Z,101024.28
2023-05-20T05:26:35.473Z,101020.72
2023-05-20T05:29:03.385Z,101006.31
2023-05-20T05:31:31.329Z,101019.09
2023-05-20T05:33:59.284Z,101020.63
2023-05-20T05:36:27.252Z,101012.56
2023-05-20T05:38:55.182Z,101022.38
2023-05-20T05:41:24.506Z,101024.31
2023-05-20T05:43:53.664Z,101027.66
2023-05-20T05:46:21.885Z,101025.59
2023-05-20T05:48:51.003Z,101018.22
2023-05-20T05:51:18.980Z,101017.63
2023-05-20T05:53:46.913Z,101018.19
2023-05-20T05:56:14.861Z,101016.00
2023-05-20T05:58:44.241Z,101016.50
2023-05-20T06:01:12.217Z,101015.69
2023-05-20T06:03:40.269Z,101012.19
2023-05-20T06:06:08.335Z,101013.66
2023-05-20T06:08:36.308Z,101011.81
2023-05-20T06:11:04.266Z,101016.00
2023-05-20T06:13:32.188Z,101014.38
2023-05-20T06:16:01.518Z,101032.50
2023-05-20T06:18:29.554Z,101045.66
2023-05-20T06:20:57.842Z,101057.91
2023-05-20T06:23:26.213Z,101054.13
2023-05-20T06:25:54.250Z,101057.31
2023-05-20T06:28:22.211Z,101048.22
2023-05-20T06:30:50.185Z,101050.16
2023-05-20T06:33:20.344Z,101048.75
2023-05-20T06:35:48.628Z,101043.09
2023-05-20T06:38:16.645Z,101047.63
2023-05-20T06:40:44.612Z,101043.25
2023-05-20T06:43:12.562Z,101035.13
2023-05-20T06:45:40.573Z,101038.97
2023-05-20T06:48:08.765Z,101034.72
2023-05-20T06:50:38.160Z,101045.53
2023-05-20T06:53:06.123Z,101039.91
2023-05-20T06:55:34.273Z,101034.56
2023-05-20T06:58:02.459Z,101040.00
2023-05-20T07:00:31.118Z,101032.53
2023-05-20T07:02:59.121Z,101035.72
2023-05-20T07:05:28.975Z,101020.75
2023-05-20T07:07:58.407Z,101017.28
2023-05-20T07:10:26.493Z,101020.03
2023-05-20T07:12:54.544Z,101013.38
2023-05-20T07:15:22.588Z,101021.72
2023-05-20T07:17:50.637Z,101007.00
2023-05-20T07:20:18.822Z,101010.34
2023-05-20T07:22:48.772Z,100996.88
2023-05-20T07:25:18.273Z,100980.53
2023-05-20T07:27:46.283Z,100982.75
2023-05-20T07:30:14.245Z,100976.91
2023-05-20T07:32:42.407Z,100980.53
2023-05-20T07:35:10.739Z,100975.81
2023-05-20T07:37:38.721Z,100979.53
2023-05-20T07:40:08.982Z,100965.00
2023-05-20T07:42:38.347Z,100945.28
2023-05-20T07:45:07.320Z,100936.88
2023-05-20T07:47:35.276Z,100930.06
2023-05-20T07:50:03.283Z,100921.75
2023-05-20T07:52:35.670Z,100932.72
2023-05-20T07:55:12.384Z,100934.38
2023-05-20T07:57:43.597Z,100937.94
2023-05-20T08:00:13.734Z,100945.53
2023-05-20T08:02:41.808Z,100931.28
2023-05-20T08:05:10.457Z,100933.31
2023-05-20T08:07:38.428Z,100938.56
2023-05-20T08:10:07.490Z,100929.50
2023-05-20T08:12:35.481Z,100927.59
2023-05-20T08:15:05.294Z,100934.44
2023-05-20T08:17:34.155Z,100945.63
2023-05-20T08:20:02.565Z,100956.88
2023-05-20T08:22:30.514Z,100965.09
2023-05-20T08:24:58.615Z,100971.63
2023-05-20T08:27:26.605Z,100982.88
2023-05-20T08:29:54.600Z,100977.69
2023-05-20T08:32:23.940Z,100991.13
2023-05-20T08:34:51.937Z,101009.38
2023-05-20T08:37:19.918Z,101026.16
2023-05-20T08:39:49.321Z,101029.47
2023-05-20T08:42:21.634Z,101031.84
2023-05-20T08:44:49.934Z,101035.88
2023-05-20T08:47:17.918Z,101036.66
2023-05-20T08:49:47.347Z,101031.97
2023-05-20T08:52:17.685Z,101041.97
2023-05-20T08:54:47.757Z,101040.19
2023-05-20T08:57:15.784Z,101039.03
2023-05-20T08:59:45.134Z,101033.09
2023-05-20T09:02:13.385Z,101027.88
2023-05-20T09:04:41.651Z,101020.00
2023-05-20T09:07:11.063Z,101022.09
2023-05-20T09:09:39.044Z,101027.31
2023-05-20T09:12:07.912Z,101018.59
2023-05-20T09:14:35.863Z,101006.78
2023-05-20T09:17:08.506Z,101009.88
2023-05-20T09:19:36.558Z,101015.63
2023-05-20T09:22:06.249Z,100994.56
2023-05-20T09:24:35.594Z,100991.09
2023-05-20T09:27:03.541Z,100985.94
2023-05-20T09:29:34.764Z,100982.03
2023-05-20T09:32:04.185Z,100979.63
2023-05-20T09:34:32.408Z,100971.63
2023-05-20T09:37:01.563Z,100980.81
2023-05-20T09:39:35.202Z,100970.09
2023-05-20T09:42:07.186Z,100975.59
2023-05-20T09:44:36.272Z,100961.28
2023-05-20T09:47:08.607Z,100962.16
2023-05-20T09:49:37.348Z,100959.22
2023-05-20T09:52:06.201Z,100961.97
2023-05-20T09:54:36.848Z,100953.97
2023-05-20T09:57:08.520Z,100956.28
2023-05-20T09:59:38.246Z,100952.94
2023-05-20T10:02:08.183Z,100934.16
2023-05-20T10:04:38.455Z,100949.50
2023-05-20T10:07:42.346Z,100943.94
2023-05-20T10:10:22.850Z,100945.22
2023-05-20T10:13:04.977Z,100941.31
2023-05-20T10:15:45.283Z,100944.22
2023-05-20T10:18:28.851Z,100946.94
2023-05-20T10:20:56.875Z,100939.53
2023-05-20T10:23:26.011Z,100938.38
2023-05-20T10:25:54.727Z,100932.22
2023-05-20T10:28:36.198Z,100931.22
2023-05-20T10:31:04.750Z,100929.25
2023-05-20T10:33:43.644Z,100927.13
2023-05-20T10:36:12.267Z,100923.59
2023-05-20T10:38:50.728Z,100918.13
2023-05-20T10:41:23.143Z,100906.97
2023-05-20T10:44:03.231Z,100901.22
2023-05-20T10:46:41.959Z,100899.91
2023-05-20T10:49:24.199Z,100890.75
2023-05-20T10:51:55.689Z,100882.78
2023-05-20T10:54:24.190Z,100868.84
2023-05-20T10:56:54.021Z,100866.91
2023-05-20T10:59:23.697Z,100865.16
2023-05-20T11:01:52.129Z,100859.81
2023-05-20T11:04:20.745Z,100851.56
2023-05-20T11:06:54.313Z,100837.19
2023-05-20T11:09:23.652Z,100836.94
2023-05-20T11:11:52.363Z,100837.88
2023-05-20T11:14:20.513Z,100820.34
2023-05-20T11:16:53.102Z,100819.78
2023-05-20T11:19:21.597Z,100821.00
2023-05-20T11:21:50.048Z,100821.09
2023-05-20T11:24:26.558Z,100806.31
2023-05-20T11:26:54.947Z,100806.25
2023-05-20T11:29:23.286Z,100799.38
2023-05-20T11:31:53.434Z,100790.38
2023-05-20T11:34:24.983Z,100778.91
2023-05-20T11:36:58.767Z,100783.13
2023-05-20T11:39:30.563Z,100767.75
2023-05-20T11:41:59.580Z,100773.59
2023-05-20T11:44:27.544Z,100766.72
2023-05-20T11:47:02.505Z,100771.94
2023-05-20T11:49:31.012Z,100768.91
2023-05-20T11:51:59.156Z,100754.63
2023-05-20T11:54:27.519Z,100754.34
2023-05-20T11:56:56.476Z,100762.84
2023-05-20T11:59:25.576Z,100763.34
2023-05-20T12:01:53.626Z,100753.34
2023-05-20T12:04:23.343Z,100754.00
2023-05-20T12:06:51.539Z,100753.19
2023-05-20T12:09:20.133Z,100743.25
2023-05-20T12:11:48.158Z,100744.53
2023-05-20T12:14:16.081Z,100743.22
2023-05-20T12:16:44.038Z,100737.84
2023-05-20T12:19:12.008Z,100735.91
2023-05-20T12:21:41.567Z,100728.84
2023-05-20T12:24:10.435Z,100721.47
2023-05-20T12:26:38.386Z,100721.94
2023-05-20T12:29:07.000Z,100715.81
2023-05-20T12:31:35.334Z,100720.94
2023-05-20T12:34:03.530Z,100717.41
2023-05-20T12:36:31.721Z,100720.72
2023-05-20T12:39:01.105Z,100732.09
2023-05-20T12:41:29.026Z,100725.72
2023-05-20T12:43:56.977Z,100713.69
2023-05-20T12:46:25.115Z,100699.06
2023-05-20T12:48:53.280Z,100692.09
2023-05-20T12:51:21.244Z,100690.81
2023-05-20T12:53:49.281Z,100682.72
2023-05-20T12:56:19.402Z,100657.81
2023-05-20T12:58:47.405Z,100675.84
2023-05-20T13:01:15.449Z,100677.00
2023-05-20T13:03:43.456Z,100682.50
2023-05-20T13:06:11.442Z,100692.69
2023-05-20T13:08:39.410Z,100698.34
2023-05-20T13:11:07.377Z,100697.34
2023-05-20T13:13:36.705Z,100692.66
2023-05-20T13:16:05.077Z,100693.00
2023-05-20T13:18:33.036Z,100703.72
2023-05-20T13:21:01.273Z,100699.47
2023-05-20T13:23:29.219Z,100728.47
2023-05-20T13:25:57.305Z,100748.84
2023-05-20T13:28:25.265Z,100738.47
2023-05-20T13:30:54.687Z,100739.00
2023-05-20T13:33:24.174Z,100740.34
2023-05-20T13:35:52.149Z,100747.03
2023-05-20T13:38:20.094Z,100745.38
2023-05-20T13:40:49.038Z,100739.47
2023-05-20T13:43:17.222Z,100743.63
2023-05-20T13:45:45.395Z,100740.78
2023-05-20T13:48:14.769Z,100736.47
2023-05-20T13:50:42.719Z,100742.91
2023-05-20T13:53:12.636Z,100737.16
2023-05-20T13:55:40.768Z,100742.97
2023-05-20T13:58:09.315Z,100732.50
2023-05-20T14:00:37.435Z,100717.31
2023-05-20T14:03:09.013Z,100726.09
2023-05-20T14:05:38.670Z,100714.50
2023-05-20T14:08:06.852Z,100720.13
2023-05-20T14:10:35.163Z,100714.66
2023-05-20T14:13:03.417Z,100713.53
2023-05-20T14:15:31.555Z,100691.69
2023-05-20T14:17:59.921Z,100684.22
2023-05-20T14:20:27.921Z,100685.38
2023-05-20T14:22:57.361Z,100687.53
2023-05-20T14:25:25.323Z,100674.44
2023-05-20T14:27:53.303Z,100671.09
2023-05-20T14:30:21.451Z,100671.25
2023-05-20T14:32:49.467Z,100667.59
2023-05-20T14:35:18.332Z,100669.50
2023-05-20T14:37:46.441Z,100663.84
2023-05-20T14:40:16.673Z,100668.75
2023-05-20T14:42:44.677Z,100666.16
2023-05-20T14:45:12.939Z,100651.53
2023-05-20T14:47:41.145Z,100646.09
2023-05-20T14:50:09.595Z,100647.75
2023-05-20T14:52:37.547Z,100646.41
2023-05-20T14:55:06.190Z,100649.03
2023-05-20T14:57:35.690Z,100642.97
2023-05-20T15:00:04.275Z,100635.34
2023-05-20T15:02:32.387Z,100633.47
2023-05-20T15:05:00.393Z,100633.84
2023-05-20T15:07:28.388Z,100638.75
2023-05-20T15:09:56.438Z,100641.72
2023-05-20T15:12:24.425Z,100630.81
2023-05-20T15:14:53.834Z,100630.81
2023-05-20T15:17:22.035Z,100631.59
2023-05-20T15:19:50.023Z,100630.47
2023-05-20T15:22:19.119Z,100630.97
2023-05-20T15:24:47.094Z,100633.13
2023-05-20T15:27:15.064Z,100632.13
2023-05-20T15:29:42.994Z,100632.53
2023-05-20T15:32:12.314Z,100631.25
2023-05-20T15:34:40.278Z,100642.97
2023-05-20T15:37:08.291Z,100644.81
2023-05-20T15:39:38.651Z,100630.59
2023-05-20T15:42:06.976Z,100641.19
2023-05-20T15:44:36.139Z,100636.25
2023-05-20T15:47:05.933Z,100637.59
2023-05-20T15:49:35.498Z,100631.31
2023-05-20T15:52:04.438Z,100642.06
2023-05-20T15:54:32.849Z,100645.53
2023-05-20T15:57:01.125Z,100638.38
2023-05-20T15:59:29.117Z,100652.78
2023-05-20T16:01:57.110Z,100653.56
2023-05-20T16:04:25.213Z,100657.34
2023-05-20T16:06:54.712Z,100662.50
2023-05-20T16:09:22.731Z,100661.34
2023-05-20T16:11:50.697Z,100656.56
2023-05-20T16:14:18.687Z,100660.81
2023-05-20T16:16:46.718Z,100655.00
2023-05-20T16:19:14.778Z,100652.53
2023-05-20T16:21:42.773Z,100648.97
2023-05-20T16:24:12.485Z,100664.84
2023-05-20T16:26:40.621Z,100664.66
2023-05-20T16:29:08.575Z,100668.16
2023-05-20T16:31:36.627Z,100656.38
2023-05-20T16:34:05.081Z,100663.41
2023-05-20T16:36:33.037Z,100657.16
2023-05-20T16:39:01.046Z,100660.25
2023-05-20T16:41:30.772Z,100654.13
2023-05-20T16:43:58.742Z,100653.47
2023-05-20T16:46:26.735Z,100657.66
2023-05-20T16:48:54.834Z,100662.75
2023-05-20T16:51:23.050Z,100663.94
2023-05-20T16:53:51.081Z,100666.53
2023-05-20T16:56:19.344Z,100666.53
2023-05-20T16:58:49.921Z,100658.84
2023-05-20T17:01:19.360Z,100659.78
2023-05-20T17:03:47.396Z,100660.63
2023-05-20T17:06:15.496Z,100644.34
2023-05-20T17:08:43.478Z,100646.59
2023-05-20T17:11:11.434Z,100643.53
2023-05-20T17:13:41.554Z,100644.50
2023-05-20T17:16:12.164Z,100648.13
2023-05-20T17:18:40.336Z,100658.00
2023-05-20T17:21:08.302Z,100657.59
2023-05-20T17:23:36.277Z,100662.91
2023-05-20T17:26:04.613Z,100659.69
2023-05-20T17:28:32.581Z,100667.50
2023-05-20T17:31:00.563Z,100664.19
2023-05-20T17:33:29.930Z,100677.00
2023-05-20T17:35:58.169Z,100674.09
2023-05-20T17:38:26.967Z,100667.91
2023-05-20T17:40:55.145Z,100665.63
2023-05-20T17:43:25.162Z,100673.88
2023-05-20T17:45:53.336Z,100666.53
2023-05-20T17:48:21.390Z,100664.22
2023-05-20T17:50:50.886Z,100666.34
2023-05-20T17:53:21.696Z,100659.97
2023-05-20T17:55:49.871Z,100667.63
2023-05-20T17:58:18.025Z,100662.47
2023-05-20T18:00:45.998Z,100659.41
2023-05-20T18:03:14.221Z,100662.22
2023-05-20T18:05:42.470Z,100662.22
2023-05-20T18:08:11.879Z,100661.75
2023-05-20T18:10:40.075Z,100666.22
2023-05-20T18:13:08.140Z,100664.97
2023-05-20T18:15:36.078Z,100665.94
2023-05-20T18:18:04.121Z,100665.78
2023-05-20T18:20:32.210Z,100670.31
2023-05-20T18:23:00.277Z,100677.97
2023-05-20T18:25:29.632Z,100680.31
2023-05-20T18:27:57.563Z,100680.19
2023-05-20T18:30:25.511Z,100683.25
2023-05-20T18:32:53.581Z,100679.03
2023-05-20T18:35:22.539Z,100686.00
2023-05-20T18:37:51.497Z,100690.28
2023-05-20T18:40:20.704Z,100671.31
2023-05-20T18:42:50.035Z,100690.41
2023-05-20T18:45:18.157Z,100692.63
2023-05-20T18:47:46.251Z,100681.59
2023-05-20T18:50:14.273Z,100694.72
2023-05-20T18:52:42.258Z,100690.72
2023-05-20T18:55:10.551Z,100693.47
2023-05-20T18:57:39.109Z,100697.06
2023-05-20T19:00:12.452Z,100704.13
2023-05-20T19:02:40.781Z,100702.44
2023-05-20T19:05:11.812Z,100702.59
2023-05-20T19:07:40.462Z,100705.66
2023-05-20T19:10:09.861Z,100703.41
2023-05-20T19:12:37.821Z,100705.09
2023-05-20T19:15:06.639Z,100699.56
2023-05-20T19:17:36.175Z,100700.66
2023-05-20T19:20:07.230Z,100699.56
2023-05-20T19:22:35.328Z,100698.72
2023-05-20T19:25:03.293Z,100698.72
2023-05-20T19:27:31.332Z,100690.56
2023-05-20T19:29:59.697Z,100693.47
2023-05-20T19:32:27.654Z,100698.34
2023-05-20T19:34:56.954Z,100694.25
2023-05-20T19:37:25.559Z,100699.50
2023-05-20T19:39:53.642Z,100697.44
2023-05-20T19:42:21.757Z,100700.31
2023-05-20T19:44:50.472Z,100703.91
2023-05-20T19:47:18.493Z,100702.66
2023-05-20T19:49:46.527Z,100707.97
2023-05-20T19:52:15.961Z,100703.34
2023-05-20T19:54:43.926Z,100713.00
2023-05-20T19:57:11.970Z,100711.22
2023-05-20T19:59:39.900Z,100725.00
2023-05-20T20:02:08.157Z,100718.06
2023-05-20T20:04:36.241Z,100718.59
2023-05-20T20:07:04.261Z,100719.34
2023-05-20T20:09:33.567Z,100708.31
2023-05-20T20:12:02.718Z,100708.44
2023-05-20T20:14:30.709Z,100701.66
2023-05-20T20:16:59.893Z,100708.16
2023-05-20T20:19:28.647Z,100709.53
2023-05-20T20:21:58.266Z,100706.03
2023-05-20T20:24:27.664Z,100702.97
2023-05-20T20:26:57.529Z,100701.72
2023-05-20T20:29:25.652Z,100696.84
2023-05-20T20:31:53.740Z,100694.25
2023-05-20T20:34:22.098Z,100693.00
2023-05-20T20:36:50.761Z,100691.03
2023-05-20T20:39:20.042Z,100687.88
2023-05-20T20:41:50.535Z,100685.78
2023-05-20T20:44:22.718Z,100686.81
2023-05-20T20:46:51.619Z,100629.66
2023-05-20T20:49:19.961Z,100685.97
2023-05-20T20:51:48.447Z,100687.63
2023-05-20T20:54:16.830Z,100671.19
2023-05-20T20:56:47.088Z,100691.94
2023-05-20T20:59:15.898Z,100683.47
2023-05-20T21:01:45.756Z,100675.28
2023-05-20T21:04:14.602Z,100684.59
2023-05-20T21:06:46.025Z,100673.19
2023-05-20T21:09:14.273Z,100683.44
2023-05-20T21:11:43.302Z,100687.84
2023-05-20T21:14:11.455Z,100679.41
2023-05-20T21:16:39.826Z,100684.63
2023-05-20T21:19:09.335Z,100676.47
2023-05-20T21:21:37.384Z,100671.22
2023-05-20T21:24:05.514Z,100683.25
2023-05-20T21:26:33.466Z,100682.78
2023-05-20T21:29:01.435Z,100676.47
2023-05-20T21:31:29.479Z,100679.31
2023-05-20T21:33:57.543Z,100678.47
2023-05-20T21:36:26.849Z,100671.56
2023-05-20T21:38:54.881Z,100670.19
2023-05-20T21:41:23.536Z,100662.56
2023-05-20T21:43:51.611Z,100655.66
2023-05-20T21:46:19.572Z,100663.41
2023-05-20T21:48:47.548Z,100656.59
2023-05-20T21:51:15.735Z,100655.66
2023-05-20T21:53:45.154Z,100652.91
2023-05-20T21:56:13.089Z,100648.50
2023-05-20T21:58:41.913Z,100648.50
2023-05-20T22:01:10.574Z,100635.06
2023-05-20T22:03:40.077Z,100640.16
2023-05-20T22:06:09.293Z,100641.97
2023-05-20T22:08:37.203Z,100640.06
2023-05-20T22:11:07.474Z,100639.09
2023-05-20T22:13:41.368Z,100636.59
2023-05-20T22:16:10.021Z,100638.25
2023-05-20T22:18:38.546Z,100630.53
2023-05-20T22:21:07.130Z,100632.06
2023-05-20T22:23:35.139Z,100628.63
2023-05-20T22:26:03.093Z,100630.16
2023-05-20T22:28:32.411Z,100632.78
2023-05-20T22:31:00.390Z,100633.63
2023-05-20T22:33:28.336Z,100630.88
2023-05-20T22:35:58.167Z,100622.78
2023-05-20T22:38:26.185Z,100635.41
2023-05-20T22:40:54.149Z,100641.59
2023-05-20T22:43:23.468Z,100637.56
2023-05-20T22:45:52.827Z,100638.50
2023-05-20T22:48:23.072Z,100633.41
2023-05-20T22:50:51.308Z,100623.31
2023-05-20T22:53:19.354Z,100625.09
2023-05-20T22:55:47.452Z,100623.53
2023-05-20T22:58:15.620Z,100626.88
2023-05-20T23:00:44.569Z,100620.91
2023-05-20T23:03:14.042Z,100625.47
2023-05-20T23:05:42.059Z,100625.72
2023-05-20T23:08:10.022Z,100620.81
2023-05-20T23:10:38.172Z,100622.59
2023-05-20T23:13:06.112Z,100607.63
2023-05-20T23:15:34.284Z,100621.44
2023-05-20T23:18:02.457Z,100620.00
2023-05-20T23:20:31.923Z,100620.00
2023-05-20T23:23:05.603Z,100616.69
2023-05-20T23:25:39.228Z,100610.28
2023-05-20T23:28:07.505Z,100616.56
2023-05-20T23:30:35.939Z,100605.78
2023-05-20T23:33:04.611Z,100613.88
2023-05-20T23:35:34.245Z,100609.59
2023-05-20T23:38:02.439Z,100603.19
2023-05-20T23:40:30.614Z,100596.41
2023-05-20T23:42:58.570Z,100596.66
2023-05-20T23:45:26.514Z,100595.13
2023-05-20T23:47:55.602Z,100590.13
2023-05-20T23:50:23.828Z,100586.22
2023-05-20T23:52:53.155Z,100590.38
2023-05-20T23:55:21.394Z,100584.06
2023-05-20T23:57:49.843Z,100587.50
